createdAt,value
2023-02-02T00:01:01.086Z,100513.53
2023-02-02T00:03:27.810Z,100513.78
2023-02-02T00:05:54.567Z,100520.22
2023-02-02T00:08:21.983Z,100515.53
2023-02-02T00:10:50.434Z,100519.34
2023-02-02T00:13:17.410Z,100514.72
2023-02-02T00:15:43.974Z,100525.47
2023-02-02T00:18:10.572Z,100522.53
2023-02-02T00:20:37.097Z,100516.59
2023-02-02T00:23:04.351Z,100520.34
2023-02-02T00:25:31.260Z,100523.03
2023-02-02T00:27:58.020Z,100523.75
2023-02-02T00:30:24.625Z,100523.81
2023-02-02T00:32:52.975Z,100520.34
2023-02-02T00:35:22.866Z,100520.34
2023-02-02T00:37:49.525Z,100521.13
2023-02-02T00:40:16.159Z,100522.22
2023-02-02T00:42:43.520Z,100524.09
2023-02-02T00:45:16.702Z,100527.59
2023-02-02T00:47:47.715Z,100526.00
2023-02-02T00:50:20.120Z,100528.25
2023-02-02T00:52:48.374Z,100528.81
2023-02-02T00:55:15.682Z,100525.78
2023-02-02T00:57:44.190Z,100531.50
2023-02-02T01:00:14.766Z,100522.63
2023-02-02T01:02:41.614Z,100529.28
2023-02-02T01:05:08.870Z,100526.38
2023-02-02T01:07:35.321Z,100527.75
2023-02-02T01:10:01.761Z,100529.47
2023-02-02T01:12:28.211Z,100529.44
2023-02-02T01:14:54.701Z,100528.41
2023-02-02T01:17:21.347Z,100526.28
2023-02-02T01:19:47.765Z,100540.22
2023-02-02T01:22:14.272Z,100535.41
2023-02-02T01:24:40.869Z,100537.69
2023-02-02T01:27:07.309Z,100537.16
2023-02-02T01:29:33.697Z,100540.97
2023-02-02T01:32:00.209Z,100542.03
2023-02-02T01:34:26.863Z,100534.78
2023-02-02T01:36:53.396Z,100524.84
2023-02-02T01:39:19.936Z,100532.91
2023-02-02T01:41:46.532Z,100540.41
2023-02-02T01:44:50.529Z,100534.53
2023-02-02T01:47:17.385Z,100532.59
2023-02-02T01:49:44.249Z,100521.00
2023-02-02T01:52:13.352Z,100529.88
2023-02-02T01:54:49.153Z,100526.84
2023-02-02T01:57:22.307Z,100529.06
2023-02-02T01:59:51.553Z,100527.41
2023-02-02T02:02:18.061Z,100526.28
2023-02-02T02:04:44.544Z,100520.91
2023-02-02T02:07:12.001Z,100528.97
2023-02-02T02:09:38.490Z,100527.09
2023-02-02T02:12:13.423Z,100535.72
2023-02-02T02:14:58.963Z,100535.47
2023-02-02T02:18:04.508Z,100527.91
2023-02-02T02:21:26.969Z,100524.09
2023-02-02T02:24:36.616Z,100532.69
2023-02-02T02:27:27.467Z,100536.69
2023-02-02T02:30:17.912Z,100528.63
2023-02-02T02:32:50.238Z,100530.50
2023-02-02T02:35:42.572Z,100528.88
2023-02-02T02:38:18.847Z,100549.53
2023-02-02T02:40:50.218Z,100546.84
2023-02-02T02:43:32.053Z,100540.44
2023-02-02T02:45:58.898Z,100542.88
2023-02-02T02:48:25.302Z,100543.13
2023-02-02T02:50:51.730Z,100535.63
2023-02-02T02:53:21.931Z,100536.44
2023-02-02T02:56:06.617Z,100545.56
2023-02-02T02:58:39.064Z,100551.50
2023-02-02T03:01:38.182Z,100557.34
2023-02-02T03:04:08.608Z,100563.22
2023-02-02T03:06:41.042Z,100560.06
2023-02-02T03:09:12.377Z,100558.41
2023-02-02T03:11:39.024Z,100566.00
2023-02-02T03:14:09.539Z,100565.41
2023-02-02T03:16:37.654Z,100560.28
2023-02-02T03:19:05.748Z,100560.06
2023-02-02T03:21:33.523Z,100543.34
2023-02-02T03:24:00.405Z,100554.44
2023-02-02T03:26:27.770Z,100562.25
2023-02-02T03:28:57.112Z,100564.69
2023-02-02T03:31:24.062Z,100569.16
2023-02-02T03:33:50.472Z,100568.09
2023-02-02T03:36:17.014Z,100567.63
2023-02-02T03:38:43.483Z,100567.88
2023-02-02T03:41:09.859Z,100573.97
2023-02-02T03:43:36.321Z,100583.09
2023-02-02T03:46:05.106Z,100601.59
2023-02-02T03:48:34.881Z,100600.59
2023-02-02T03:51:04.758Z,100601.66
2023-02-02T03:53:31.167Z,100610.03
2023-02-02T03:55:57.564Z,100604.44
2023-02-02T03:58:23.987Z,100606.88
2023-02-02T04:00:50.486Z,100604.19
2023-02-02T04:03:16.881Z,100598.28
2023-02-02T04:05:43.302Z,100607.94
2023-02-02T04:08:09.768Z,100609.03
2023-02-02T04:10:36.231Z,100612.28
2023-02-02T04:13:02.620Z,100614.13
2023-02-02T04:15:29.068Z,100613.78
2023-02-02T04:17:55.474Z,100616.81
2023-02-02T04:20:21.877Z,100621.94
2023-02-02T04:22:48.308Z,100616.28
2023-02-02T04:25:14.766Z,100628.38
2023-02-02T04:27:41.354Z,100627.38
2023-02-02T04:30:09.001Z,100632.03
2023-02-02T04:32:35.550Z,100630.06
2023-02-02T04:35:02.067Z,100625.78
2023-02-02T04:37:31.230Z,100626.03
2023-02-02T04:39:57.765Z,100635.78
2023-02-02T04:42:24.377Z,100634.09
2023-02-02T04:44:50.984Z,100636.25
2023-02-02T04:47:17.583Z,100641.34
2023-02-02T04:49:44.106Z,100637.84
2023-02-02T04:52:11.409Z,100645.72
2023-02-02T04:54:56.128Z,100647.34
2023-02-02T04:57:22.688Z,100663.94
2023-02-02T04:59:49.109Z,100655.34
2023-02-02T05:02:15.501Z,100667.44
2023-02-02T05:04:41.989Z,100668.00
2023-02-02T05:07:08.784Z,100667.97
2023-02-02T05:09:35.275Z,100679.81
2023-02-02T05:12:01.712Z,100670.94
2023-02-02T05:14:28.137Z,100679.81
2023-02-02T05:16:54.841Z,100683.56
2023-02-02T05:19:21.283Z,100692.16
2023-02-02T05:21:51.226Z,100695.06
2023-02-02T05:24:17.968Z,100696.38
2023-02-02T05:26:44.402Z,100702.22
2023-02-02T05:29:11.112Z,100700.03
2023-02-02T05:31:37.718Z,100699.88
2023-02-02T05:34:06.794Z,100699.06
2023-02-02T05:36:33.277Z,100710.38
2023-02-02T05:39:00.383Z,100712.50
2023-02-02T05:41:26.901Z,100709.00
2023-02-02T05:43:53.333Z,100713.31
2023-02-02T05:46:19.874Z,100723.97
2023-02-02T05:48:46.283Z,100726.97
2023-02-02T05:51:19.237Z,100727.69
2023-02-02T05:53:46.355Z,100735.75
2023-02-02T05:56:13.711Z,100744.72
2023-02-02T05:58:40.247Z,100743.91
2023-02-02T06:01:06.722Z,100745.69
2023-02-02T06:03:33.348Z,100758.31
2023-02-02T06:06:00.142Z,100750.44
2023-02-02T06:08:26.805Z,100761.44
2023-02-02T06:10:53.240Z,100749.28
2023-02-02T06:13:19.677Z,100753.19
2023-02-02T06:15:46.234Z,100753.44
2023-02-02T06:18:12.902Z,100755.06
2023-02-02T06:20:39.432Z,100756.78
2023-02-02T06:23:06.465Z,100761.09
2023-02-02T06:25:34.346Z,100760.59
2023-02-02T06:28:01.417Z,100765.72
2023-02-02T06:30:28.499Z,100777.53
2023-02-02T06:32:55.084Z,100771.66
2023-02-02T06:35:21.901Z,100782.75
2023-02-02T06:37:49.145Z,100779.97
2023-02-02T06:40:15.653Z,100776.47
2023-02-02T06:42:42.191Z,100775.50
2023-02-02T06:45:09.178Z,100796.75
2023-02-02T06:47:35.710Z,100784.13
2023-02-02T06:50:02.355Z,100792.22
2023-02-02T06:52:28.969Z,100795.03
2023-02-02T06:54:55.370Z,100795.44
2023-02-02T06:57:21.865Z,100801.88
2023-02-02T06:59:48.431Z,100807.34
2023-02-02T07:02:14.900Z,100799.75
2023-02-02T07:04:41.355Z,100809.53
2023-02-02T07:07:07.797Z,100800.81
2023-02-02T07:09:35.064Z,100806.50
2023-02-02T07:12:02.029Z,100805.75
2023-02-02T07:14:28.505Z,100806.31
2023-02-02T07:16:54.927Z,100817.31
2023-02-02T07:19:21.453Z,100826.78
2023-02-02T07:21:47.837Z,100827.59
2023-02-02T07:24:14.249Z,100835.66
2023-02-02T07:26:40.862Z,100828.22
2023-02-02T07:29:07.411Z,100830.41
2023-02-02T07:31:36.284Z,100825.53
2023-02-02T07:34:04.117Z,100839.56
2023-02-02T07:36:30.740Z,100839.13
2023-02-02T07:39:02.392Z,100824.34
2023-02-02T07:41:28.872Z,100838.22
2023-02-02T07:43:55.478Z,100834.97
2023-02-02T07:46:22.422Z,100840.63
2023-02-02T07:48:55.357Z,100843.47
2023-02-02T07:51:22.473Z,100835.09
2023-02-02T07:53:51.373Z,100841.34
2023-02-02T07:56:24.242Z,100846.22
2023-02-02T07:58:55.145Z,100853.38
2023-02-02T08:01:23.503Z,100851.00
2023-02-02T08:03:50.784Z,100848.88
2023-02-02T08:06:28.414Z,100855.13
2023-02-02T08:08:54.828Z,100852.50
2023-02-02T08:11:22.856Z,100856.81
2023-02-02T08:13:51.321Z,100860.44
2023-02-02T08:16:18.770Z,100867.47
2023-02-02T08:18:45.389Z,100865.69
2023-02-02T08:21:12.146Z,100879.97
2023-02-02T08:23:40.248Z,100882.75
2023-02-02T08:26:14.219Z,100888.94
2023-02-02T08:28:42.524Z,100884.91
2023-02-02T08:31:12.193Z,100892.50
2023-02-02T08:33:39.737Z,100887.41
2023-02-02T08:36:13.652Z,100905.47
2023-02-02T08:38:40.813Z,100904.66
2023-02-02T08:41:08.941Z,100898.22
2023-02-02T08:43:35.843Z,100897.69
2023-02-02T08:46:05.571Z,100901.75
2023-02-02T08:48:32.465Z,100901.13
2023-02-02T08:50:59.992Z,100895.50
2023-02-02T08:53:27.382Z,100905.25
2023-02-02T08:56:05.416Z,100892.91
2023-02-02T08:58:33.664Z,100893.81
2023-02-02T09:01:14.139Z,100900.09
2023-02-02T09:03:40.667Z,100899.44
2023-02-02T09:06:09.716Z,100901.16
2023-02-02T09:08:36.341Z,100903.16
2023-02-02T09:11:14.956Z,100903.75
2023-02-02T09:13:42.276Z,100908.94
2023-02-02T09:16:11.754Z,100901.94
2023-02-02T09:18:39.329Z,100915.13
2023-02-02T09:21:09.511Z,100918.09
2023-02-02T09:23:38.750Z,100921.59
2023-02-02T09:26:12.277Z,100921.06
2023-02-02T09:28:40.332Z,100922.41
2023-02-02T09:31:08.100Z,100933.22
2023-02-02T09:33:35.198Z,100925.25
2023-02-02T09:36:16.456Z,100932.53
2023-02-02T09:38:44.429Z,100933.84
2023-02-02T09:41:38.362Z,100938.22
2023-02-02T09:44:14.895Z,100943.69
2023-02-02T09:47:04.735Z,100943.53
2023-02-02T09:50:13.149Z,100956.97
2023-02-02T09:52:44.205Z,100960.31
2023-02-02T09:55:16.309Z,100951.94
2023-02-02T09:57:48.594Z,100959.00
2023-02-02T10:00:37.382Z,100959.16
2023-02-02T10:03:45.038Z,100958.22
2023-02-02T10:06:32.762Z,100958.09
2023-02-02T10:09:47.397Z,100964.13
2023-02-02T10:12:26.074Z,100960.38
2023-02-02T10:15:13.098Z,100958.75
2023-02-02T10:18:18.485Z,100969.34
2023-02-02T10:20:56.250Z,100963.91
2023-02-02T10:23:29.095Z,100955.50
2023-02-02T10:26:20.557Z,100957.41
2023-02-02T10:29:11.290Z,100967.38
2023-02-02T10:32:01.341Z,100960.03
2023-02-02T10:34:40.515Z,100964.91
2023-02-02T10:37:35.697Z,100969.50
2023-02-02T10:40:21.137Z,100975.19
2023-02-02T10:43:47.385Z,100975.41
2023-02-02T10:46:33.755Z,100983.72
2023-02-02T10:49:23.837Z,100980.41
2023-02-02T10:52:11.985Z,100986.81
2023-02-02T10:54:59.503Z,100991.31
2023-02-02T10:57:51.456Z,100992.88
2023-02-02T11:00:23.086Z,100992.56
2023-02-02T11:02:51.168Z,101003.03
2023-02-02T11:05:43.437Z,100999.81
2023-02-02T11:08:15.876Z,100995.53
2023-02-02T11:10:44.811Z,101005.59
2023-02-02T11:13:30.652Z,101009.88
2023-02-02T11:16:19.681Z,101008.22
2023-02-02T11:18:46.197Z,101011.44
2023-02-02T11:21:26.824Z,101011.34
2023-02-02T11:24:04.995Z,101012.94
2023-02-02T11:27:24.246Z,101021.38
2023-02-02T11:29:55.928Z,101031.06
2023-02-02T11:32:25.440Z,101022.41
2023-02-02T11:35:03.989Z,101022.97
2023-02-02T11:37:32.438Z,101023.81
2023-02-02T11:40:18.712Z,101030.25
2023-02-02T11:42:47.706Z,101037.78
2023-02-02T11:45:20.707Z,101043.97
2023-02-02T11:47:47.214Z,101042.88
2023-02-02T11:50:24.356Z,101051.25
2023-02-02T11:52:51.066Z,101044.31
2023-02-02T11:55:26.101Z,101049.63
2023-02-02T11:58:24.917Z,101054.47
2023-02-02T12:01:03.667Z,101060.38
2023-02-02T12:03:35.382Z,101055.13
2023-02-02T12:06:18.446Z,101053.00
2023-02-02T12:08:46.022Z,101050.53
2023-02-02T12:11:29.564Z,101046.47
2023-02-02T12:14:12.296Z,101036.25
2023-02-02T12:16:53.644Z,101041.69
2023-02-02T12:19:45.986Z,101054.63
2023-02-02T12:22:22.913Z,101070.72
2023-02-02T12:25:01.021Z,101075.72
2023-02-02T12:28:02.221Z,101082.69
2023-02-02T12:30:40.845Z,101092.41
2023-02-02T12:33:23.297Z,101090.94
2023-02-02T12:36:12.645Z,101090.63
2023-02-02T12:39:01.678Z,101074.88
2023-02-02T12:41:50.684Z,101067.59
2023-02-02T12:44:26.540Z,101074.22
2023-02-02T12:47:32.167Z,101069.09
2023-02-02T12:50:10.482Z,101080.69
2023-02-02T12:53:01.882Z,101072.72
2023-02-02T12:55:48.740Z,101074.31
2023-02-02T12:58:20.764Z,101077.03
2023-02-02T13:01:03.001Z,101080.56
2023-02-02T13:03:56.378Z,101087.22
2023-02-02T13:06:47.391Z,101096.72
2023-02-02T13:09:44.358Z,101106.63
2023-02-02T13:12:15.830Z,101101.72
2023-02-02T13:14:48.602Z,101121.31
2023-02-02T13:17:36.275Z,101117.31
2023-02-02T13:20:06.823Z,101122.63
2023-02-02T13:22:41.072Z,101136.91
2023-02-02T13:25:16.905Z,101135.28
2023-02-02T13:27:44.375Z,101140.69
2023-02-02T13:30:22.919Z,101138.31
2023-02-02T13:32:54.599Z,101144.53
2023-02-02T13:35:31.234Z,101139.38
2023-02-02T13:38:20.049Z,101153.69
2023-02-02T13:40:47.403Z,101159.88
2023-02-02T13:43:29.367Z,101151.91
2023-02-02T13:46:26.716Z,101155.56
2023-02-02T13:49:13.389Z,101158.69
2023-02-02T13:52:13.940Z,101161.97
2023-02-02T13:54:40.364Z,101155.84
2023-02-02T13:57:34.073Z,101160.22
2023-02-02T14:00:03.537Z,101169.34
2023-02-02T14:02:35.103Z,101165.56
2023-02-02T14:05:03.950Z,101168.28
2023-02-02T14:07:42.013Z,101170.31
2023-02-02T14:10:24.255Z,101170.97
2023-02-02T14:12:51.760Z,101170.50
2023-02-02T14:15:18.791Z,101173.72
2023-02-02T14:17:46.986Z,101180.81
2023-02-02T14:20:43.386Z,101177.53
2023-02-02T14:23:47.490Z,101177.66
2023-02-02T14:26:19.687Z,101192.75
2023-02-02T14:28:49.021Z,101183.31
2023-02-02T14:31:28.347Z,101193.28
2023-02-02T14:34:47.543Z,101194.28
2023-02-02T14:37:16.669Z,101197.63
2023-02-02T14:40:06.190Z,101202.22
2023-02-02T14:43:15.903Z,101197.13
2023-02-02T14:45:44.321Z,101202.06
2023-02-02T14:48:23.792Z,101206.28
2023-02-02T14:50:56.222Z,101218.03
2023-02-02T14:53:30.033Z,101217.47
2023-02-02T14:56:13.304Z,101224.63
2023-02-02T14:58:39.621Z,101230.28
2023-02-02T15:01:12.467Z,101229.72
2023-02-02T15:04:20.799Z,101237.53
2023-02-02T15:06:49.269Z,101236.25
2023-02-02T15:09:27.868Z,101240.91
2023-02-02T15:12:02.098Z,101249.03
2023-02-02T15:15:05.693Z,101253.53
2023-02-02T15:17:41.355Z,101261.31
2023-02-02T15:20:13.824Z,101255.34
2023-02-02T15:23:02.385Z,101266.16
2023-02-02T15:25:52.242Z,101272.22
2023-02-02T15:28:31.254Z,101275.84
2023-02-02T15:31:37.249Z,101279.34
2023-02-02T15:34:09.620Z,101294.13
2023-02-02T15:36:41.087Z,101309.75
2023-02-02T15:39:23.646Z,101315.38
2023-02-02T15:42:10.600Z,101312.94
2023-02-02T15:44:38.190Z,101319.63
2023-02-02T15:47:09.340Z,101319.97
2023-02-02T15:49:36.337Z,101325.53
2023-02-02T15:52:20.606Z,101338.69
2023-02-02T15:54:55.666Z,101347.50
2023-02-02T15:57:32.685Z,101339.56
2023-02-02T16:00:02.046Z,101349.19
2023-02-02T16:02:42.837Z,101357.44
2023-02-02T16:05:40.694Z,101361.69
2023-02-02T16:08:16.572Z,101367.78
2023-02-02T16:10:45.278Z,101376.03
2023-02-02T16:13:26.260Z,101377.09
2023-02-02T16:15:58.198Z,101380.03
2023-02-02T16:18:24.649Z,101377.81
2023-02-02T16:20:55.930Z,101374.78
2023-02-02T16:23:28.917Z,101390.38
2023-02-02T16:25:58.232Z,101394.47
2023-02-02T16:28:28.346Z,101398.94
2023-02-02T16:30:56.163Z,101404.78
2023-02-02T16:33:40.713Z,101403.16
2023-02-02T16:36:29.752Z,101417.69
2023-02-02T16:39:00.984Z,101424.13
2023-02-02T16:41:34.272Z,101426.03
2023-02-02T16:44:42.064Z,101421.94
2023-02-02T16:47:32.180Z,101424.50
2023-02-02T16:50:10.664Z,101431.19
2023-02-02T16:52:53.889Z,101433.88
2023-02-02T16:55:27.887Z,101435.44
2023-02-02T16:57:59.008Z,101443.75
2023-02-02T17:00:31.474Z,101451.81
2023-02-02T17:03:06.577Z,101449.94
2023-02-02T17:05:54.023Z,101456.03
2023-02-02T17:08:31.054Z,101459.19
2023-02-02T17:11:04.584Z,101465.63
2023-02-02T17:13:31.049Z,101472.78
2023-02-02T17:15:58.601Z,101475.25
2023-02-02T17:18:27.778Z,101470.22
2023-02-02T17:21:07.394Z,101475.72
2023-02-02T17:23:41.627Z,101484.75
2023-02-02T17:26:09.315Z,101494.94
2023-02-02T17:28:40.347Z,101494.34
2023-02-02T17:31:12.908Z,101492.13
2023-02-02T17:33:45.892Z,101497.13
2023-02-02T17:36:13.434Z,101501.00
2023-02-02T17:38:40.155Z,101507.69
2023-02-02T17:41:09.435Z,101513.28
2023-02-02T17:43:35.883Z,101511.09
2023-02-02T17:46:04.560Z,101514.59
2023-02-02T17:48:31.095Z,101511.31
2023-02-02T17:50:57.549Z,101519.84
2023-02-02T17:53:26.279Z,101523.00
2023-02-02T17:55:53.360Z,101526.06
2023-02-02T17:58:19.900Z,101532.13
2023-02-02T18:00:48.674Z,101527.56
2023-02-02T18:03:20.708Z,101527.22
2023-02-02T18:05:47.283Z,101524.28
2023-02-02T18:08:14.670Z,101526.97
2023-02-02T18:10:42.112Z,101528.59
2023-02-02T18:13:14.775Z,101533.16
2023-02-02T18:15:41.230Z,101538.06
2023-02-02T18:18:12.415Z,101526.72
2023-02-02T18:20:48.893Z,101531.78
2023-02-02T18:23:17.038Z,101537.16
2023-02-02T18:25:43.725Z,101548.72
2023-02-02T18:28:17.127Z,101544.16
2023-02-02T18:30:47.591Z,101543.00
2023-02-02T18:33:17.811Z,101536.41
2023-02-02T18:35:45.459Z,101539.00
2023-02-02T18:38:15.073Z,101539.44
2023-02-02T18:40:42.267Z,101536.16
2023-02-02T18:43:09.218Z,101541.09
2023-02-02T18:45:36.474Z,101535.00
2023-02-02T18:48:02.992Z,101531.59
2023-02-02T18:50:29.530Z,101527.84
2023-02-02T18:52:56.726Z,101531.00
2023-02-02T18:55:23.592Z,101526.81
2023-02-02T18:57:50.158Z,101542.72
2023-02-02T19:00:16.785Z,101529.06
2023-02-02T19:02:43.239Z,101537.56
2023-02-02T19:05:28.473Z,101530.31
2023-02-02T19:07:55.042Z,101532.19
2023-02-02T19:10:23.664Z,101527.63
2023-02-02T19:12:55.787Z,101522.84
2023-02-02T19:15:22.916Z,101516.97
2023-02-02T19:17:52.993Z,101520.97
2023-02-02T19:20:30.174Z,101514.53
2023-02-02T19:23:07.079Z,101520.50
2023-02-02T19:25:33.741Z,101512.09
2023-02-02T19:28:14.302Z,101519.22
2023-02-02T19:30:44.978Z,101515.13
2023-02-02T19:33:13.712Z,101524.72
2023-02-02T19:35:40.713Z,101523.53
2023-02-02T19:38:14.078Z,101510.31
2023-02-02T19:40:42.374Z,101513.97
2023-02-02T19:43:20.889Z,101524.56
2023-02-02T19:45:47.532Z,101519.41
2023-02-02T19:48:13.848Z,101522.47
2023-02-02T19:50:43.019Z,101529.97
2023-02-02T19:53:23.129Z,101527.63
2023-02-02T19:55:50.738Z,101518.03
2023-02-02T19:58:20.888Z,101527.28
2023-02-02T20:00:52.431Z,101537.34
2023-02-02T20:03:35.921Z,101532.19
2023-02-02T20:06:04.240Z,101530.31
2023-02-02T20:08:40.859Z,101536.16
2023-02-02T20:11:37.256Z,101540.50
2023-02-02T20:14:29.109Z,101535.34
2023-02-02T20:17:02.365Z,101546.91
2023-02-02T20:19:35.237Z,101544.09
2023-02-02T20:22:02.990Z,101550.66
2023-02-02T20:24:37.615Z,101559.78
2023-02-02T20:27:20.159Z,101549.25
2023-02-02T20:29:48.670Z,101562.47
2023-02-02T20:32:22.894Z,101553.56
2023-02-02T20:34:51.080Z,101551.47
2023-02-02T20:37:27.067Z,101553.50
2023-02-02T20:40:00.104Z,101557.72
2023-02-02T20:42:30.192Z,101556.91
2023-02-02T20:44:58.045Z,101565.66
2023-02-02T20:47:24.450Z,101559.22
2023-02-02T20:49:50.957Z,101556.75
2023-02-02T20:52:24.007Z,101556.41
2023-02-02T20:54:51.862Z,101555.38
2023-02-02T20:57:19.113Z,101554.75
2023-02-02T20:59:45.588Z,101552.44
2023-02-02T21:02:20.774Z,101541.31
2023-02-02T21:04:47.777Z,101536.53
2023-02-02T21:07:16.796Z,101538.84
2023-02-02T21:09:44.616Z,101540.03
2023-02-02T21:12:11.588Z,101534.97
2023-02-02T21:14:38.879Z,101520.09
2023-02-02T21:17:14.793Z,101522.94
2023-02-02T21:19:41.974Z,101519.31
2023-02-02T21:22:08.335Z,101522.72
2023-02-02T21:24:34.785Z,101528.75
2023-02-02T21:27:02.135Z,101531.00
2023-02-02T21:29:31.220Z,101527.94
2023-02-02T21:32:00.686Z,101537.44
2023-02-02T21:34:27.766Z,101533.44
2023-02-02T21:36:57.178Z,101536.94
2023-02-02T21:39:25.055Z,101524.91
2023-02-02T21:42:10.258Z,101536.47
2023-02-02T21:44:39.063Z,101545.91
2023-02-02T21:47:50.852Z,101536.69
2023-02-02T21:50:25.096Z,101533.16
2023-02-02T21:52:58.610Z,101529.22
2023-02-02T21:55:36.831Z,101525.31
2023-02-02T21:58:18.959Z,101530.25
2023-02-02T22:00:46.661Z,101526.22
2023-02-02T22:03:37.964Z,101527.75
2023-02-02T22:06:29.107Z,101520.84
2023-02-02T22:09:17.437Z,101510.69
2023-02-02T22:11:52.685Z,101502.84
2023-02-02T22:14:25.033Z,101524.59
2023-02-02T22:16:57.108Z,101507.28
2023-02-02T22:19:31.901Z,101501.19
2023-02-02T22:22:15.627Z,101503.78
2023-02-02T22:24:44.353Z,101499.81
2023-02-02T22:27:23.733Z,101495.34
2023-02-02T22:29:56.820Z,101492.59
2023-02-02T22:32:23.199Z,101490.25
2023-02-02T22:34:49.571Z,101490.00
2023-02-02T22:37:15.937Z,101482.84
2023-02-02T22:39:42.768Z,101479.72
2023-02-02T22:42:10.547Z,101476.50
2023-02-02T22:44:36.950Z,101474.06
2023-02-02T22:47:03.646Z,101470.19
2023-02-02T22:49:30.093Z,101474.72
2023-02-02T22:51:56.486Z,101474.28
2023-02-02T22:54:22.891Z,101469.13
2023-02-02T22:56:49.282Z,101464.69
2023-02-02T22:59:15.659Z,101473.81
2023-02-02T23:01:42.050Z,101475.69
2023-02-02T23:04:08.572Z,101472.25
2023-02-02T23:06:35.007Z,101479.28
2023-02-02T23:09:01.459Z,101482.19
2023-02-02T23:11:27.836Z,101483.84
2023-02-02T23:13:54.216Z,101483.00
2023-02-02T23:16:20.702Z,101478.69
2023-02-02T23:18:47.171Z,101477.03
2023-02-02T23:21:13.894Z,101464.88
2023-02-02T23:23:40.316Z,101467.66
2023-02-02T23:26:06.689Z,101461.25
2023-02-02T23:28:33.120Z,101457.00
2023-02-02T23:30:59.736Z,101447.97
2023-02-02T23:33:27.009Z,101445.06
2023-02-02T23:35:53.407Z,101430.81
2023-02-02T23:38:19.859Z,101430.38
2023-02-02T23:40:46.242Z,101431.19
2023-02-02T23:43:12.676Z,101432.84
2023-02-02T23:45:39.506Z,101427.09
2023-02-02T23:48:07.507Z,101419.25
2023-02-02T23:50:38.000Z,101424.63
2023-02-02T23:53:06.398Z,101410.38
2023-02-02T23:55:32.836Z,101411.84
2023-02-02T23:57:59.589Z,101401.94
